sensor_id;sensor_type;location;lat;lon;timestamp;P1;durP1;ratioP1;P2;durP2;ratioP2
44147;SDS011;29810;55.848;37.368;2022-09-27T00:01:50;4.37;;;3.53;;
44147;SDS011;29810;55.848;37.368;2022-09-27T00:04:51;5.50;;;4.03;;
44147;SDS011;29810;55.848;37.368;2022-09-27T00:07:53;7.00;;;4.05;;
44147;SDS011;29810;55.848;37.368;2022-09-27T00:10:59;5.12;;;3.90;;
44147;SDS011;29810;55.848;37.368;2022-09-27T00:14:01;5.65;;;3.80;;
44147;SDS011;29810;55.848;37.368;2022-09-27T00:17:04;5.40;;;4.65;;
44147;SDS011;29810;55.848;37.368;2022-09-27T00:20:06;6.47;;;4.90;;
44147;SDS011;29810;55.848;37.368;2022-09-27T00:23:08;7.28;;;4.82;;
44147;SDS011;29810;55.848;37.368;2022-09-27T00:26:10;6.80;;;4.43;;
44147;SDS011;29810;55.848;37.368;2022-09-27T00:29:15;5.57;;;3.53;;
44147;SDS011;29810;55.848;37.368;2022-09-27T00:32:18;153.93;;;8.82;;
44147;SDS011;29810;55.848;37.368;2022-09-27T00:35:20;5.43;;;4.00;;
44147;SDS011;29810;55.848;37.368;2022-09-27T00:38:21;4.95;;;3.85;;
44147;SDS011;29810;55.848;37.368;2022-09-27T00:41:27;5.85;;;4.12;;
44147;SDS011;29810;55.848;37.368;2022-09-27T00:47:42;6.03;;;4.35;;
44147;SDS011;29810;55.848;37.368;2022-09-27T00:50:50;7.85;;;3.85;;
44147;SDS011;29810;55.848;37.368;2022-09-27T00:53:57;5.70;;;3.55;;
44147;SDS011;29810;55.848;37.368;2022-09-27T00:56:59;4.95;;;3.60;;
44147;SDS011;29810;55.848;37.368;2022-09-27T01:00:07;4.95;;;3.42;;
44147;SDS011;29810;55.848;37.368;2022-09-27T01:03:13;4.07;;;3.67;;
44147;SDS011;29810;55.848;37.368;2022-09-27T01:06:22;4.32;;;3.20;;
44147;SDS011;29810;55.848;37.368;2022-09-27T01:09:24;5.12;;;4.12;;
44147;SDS011;29810;55.848;37.368;2022-09-27T01:12:38;5.65;;;3.85;;
44147;SDS011;29810;55.848;37.368;2022-09-27T01:15:54;5.75;;;4.30;;
44147;SDS011;29810;55.848;37.368;2022-09-27T01:19:15;7.30;;;4.55;;
44147;SDS011;29810;55.848;37.368;2022-09-27T01:22:31;6.20;;;4.85;;
44147;SDS011;29810;55.848;37.368;2022-09-27T01:48:30;7.97;;;4.95;;
44147;SDS011;29810;55.848;37.368;2022-09-27T01:51:38;5.82;;;4.30;;
44147;SDS011;29810;55.848;37.368;2022-09-27T01:54:46;7.10;;;4.50;;
44147;SDS011;29810;55.848;37.368;2022-09-27T01:57:56;14.05;;;5.70;;
44147;SDS011;29810;55.848;37.368;2022-09-27T02:01:03;8.18;;;4.90;;
44147;SDS011;29810;55.848;37.368;2022-09-27T02:04:10;16.30;;;5.45;;
44147;SDS011;29810;55.848;37.368;2022-09-27T02:07:22;40.47;;;5.65;;
44147;SDS011;29810;55.848;37.368;2022-09-27T02:10:33;7.55;;;4.45;;
44147;SDS011;29810;55.848;37.368;2022-09-27T02:13:46;7.90;;;4.65;;
44147;SDS011;29810;55.848;37.368;2022-09-27T02:17:43;16.65;;;5.57;;
44147;SDS011;29810;55.848;37.368;2022-09-27T02:20:48;12.90;;;5.30;;
44147;SDS011;29810;55.848;37.368;2022-09-27T02:23:56;10.23;;;4.97;;
44147;SDS011;29810;55.848;37.368;2022-09-27T02:27:06;10.02;;;4.70;;
44147;SDS011;29810;55.848;37.368;2022-09-27T02:30:14;10.18;;;4.68;;
44147;SDS011;29810;55.848;37.368;2022-09-27T02:33:18;11.88;;;4.80;;
44147;SDS011;29810;55.848;37.368;2022-09-27T02:36:23;16.33;;;4.97;;
44147;SDS011;29810;55.848;37.368;2022-09-27T02:39:25;52.35;;;5.37;;
44147;SDS011;29810;55.848;37.368;2022-09-27T02:42:28;18.50;;;4.87;;
44147;SDS011;29810;55.848;37.368;2022-09-27T02:55:36;11.90;;;4.32;;
44147;SDS011;29810;55.848;37.368;2022-09-27T03:05:03;21.95;;;4.87;;
44147;SDS011;29810;55.848;37.368;2022-09-27T03:08:08;18.00;;;4.97;;
44147;SDS011;29810;55.848;37.368;2022-09-27T03:11:13;11.80;;;4.87;;
44147;SDS011;29810;55.848;37.368;2022-09-27T03:14:14;15.50;;;4.75;;
44147;SDS011;29810;55.848;37.368;2022-09-27T03:17:17;28.15;;;5.93;;
44147;SDS011;29810;55.848;37.368;2022-09-27T03:20:22;56.53;;;6.37;;
44147;SDS011;29810;55.848;37.368;2022-09-27T03:23:24;56.05;;;6.40;;
44147;SDS011;29810;55.848;37.368;2022-09-27T03:26:26;31.70;;;5.43;;
44147;SDS011;29810;55.848;37.368;2022-09-27T03:29:28;25.73;;;4.72;;
44147;SDS011;29810;55.848;37.368;2022-09-27T03:32:31;30.23;;;5.45;;
44147;SDS011;29810;55.848;37.368;2022-09-27T03:35:35;156.73;;;8.45;;
44147;SDS011;29810;55.848;37.368;2022-09-27T03:38:37;70.35;;;5.82;;
44147;SDS011;29810;55.848;37.368;2022-09-27T03:41:39;43.20;;;5.62;;
44147;SDS011;29810;55.848;37.368;2022-09-27T03:44:41;138.52;;;7.60;;
44147;SDS011;29810;55.848;37.368;2022-09-27T03:47:43;108.35;;;6.65;;
44147;SDS011;29810;55.848;37.368;2022-09-27T03:50:44;71.37;;;6.47;;
44147;SDS011;29810;55.848;37.368;2022-09-27T03:53:46;48.08;;;6.12;;
44147;SDS011;29810;55.848;37.368;2022-09-27T03:56:49;38.40;;;6.18;;
44147;SDS011;29810;55.848;37.368;2022-09-27T03:59:52;113.60;;;8.25;;
44147;SDS011;29810;55.848;37.368;2022-09-27T04:02:56;25.88;;;6.12;;
44147;SDS011;29810;55.848;37.368;2022-09-27T04:06:02;33.40;;;6.20;;
44147;SDS011;29810;55.848;37.368;2022-09-27T04:09:07;32.50;;;6.87;;
44147;SDS011;29810;55.848;37.368;2022-09-27T04:12:12;80.35;;;8.13;;
44147;SDS011;29810;55.848;37.368;2022-09-27T04:15:13;82.15;;;8.23;;
44147;SDS011;29810;55.848;37.368;2022-09-27T04:18:17;150.00;;;9.55;;
44147;SDS011;29810;55.848;37.368;2022-09-27T04:21:21;120.72;;;9.25;;
44147;SDS011;29810;55.848;37.368;2022-09-27T04:24:23;71.82;;;9.02;;
44147;SDS011;29810;55.848;37.368;2022-09-27T04:27:26;78.30;;;8.77;;
44147;SDS011;29810;55.848;37.368;2022-09-27T04:30:28;110.93;;;9.15;;
44147;SDS011;29810;55.848;37.368;2022-09-27T04:33:32;86.65;;;9.85;;
44147;SDS011;29810;55.848;37.368;2022-09-27T04:36:35;156.48;;;11.25;;
44147;SDS011;29810;55.848;37.368;2022-09-27T04:39:37;136.48;;;11.27;;
44147;SDS011;29810;55.848;37.368;2022-09-27T04:42:40;334.65;;;14.63;;
44147;SDS011;29810;55.848;37.368;2022-09-27T04:45:42;234.23;;;11.12;;
44147;SDS011;29810;55.848;37.368;2022-09-27T04:48:44;142.82;;;10.05;;
44147;SDS011;29810;55.848;37.368;2022-09-27T04:51:46;70.20;;;9.18;;
44147;SDS011;29810;55.848;37.368;2022-09-27T04:54:48;86.63;;;9.15;;
44147;SDS011;29810;55.848;37.368;2022-09-27T04:57:51;113.35;;;9.82;;
44147;SDS011;29810;55.848;37.368;2022-09-27T05:00:54;73.82;;;8.63;;
44147;SDS011;29810;55.848;37.368;2022-09-27T05:03:57;89.47;;;8.30;;
44147;SDS011;29810;55.848;37.368;2022-09-27T05:07:00;49.20;;;8.48;;
44147;SDS011;29810;55.848;37.368;2022-09-27T05:10:02;70.15;;;9.10;;
44147;SDS011;29810;55.848;37.368;2022-09-27T05:13:05;96.12;;;8.82;;
44147;SDS011;29810;55.848;37.368;2022-09-27T05:16:07;45.22;;;8.18;;
44147;SDS011;29810;55.848;37.368;2022-09-27T05:19:11;59.38;;;8.63;;
44147;SDS011;29810;55.848;37.368;2022-09-27T05:22:17;49.38;;;8.50;;
44147;SDS011;29810;55.848;37.368;2022-09-27T05:25:19;127.53;;;10.48;;
44147;SDS011;29810;55.848;37.368;2022-09-27T05:28:23;63.22;;;9.05;;
44147;SDS011;29810;55.848;37.368;2022-09-27T05:31:25;68.20;;;10.02;;
44147;SDS011;29810;55.848;37.368;2022-09-27T05:34:27;113.82;;;12.23;;
44147;SDS011;29810;55.848;37.368;2022-09-27T05:37:29;59.00;;;10.90;;
44147;SDS011;29810;55.848;37.368;2022-09-27T05:40:35;52.22;;;10.95;;
44147;SDS011;29810;55.848;37.368;2022-09-27T05:43:36;79.70;;;11.68;;
44147;SDS011;29810;55.848;37.368;2022-09-27T05:46:40;60.15;;;12.25;;
44147;SDS011;29810;55.848;37.368;2022-09-27T05:49:42;577.40;;;26.00;;
44147;SDS011;29810;55.848;37.368;2022-09-27T05:52:45;195.07;;;17.48;;
44147;SDS011;29810;55.848;37.368;2022-09-27T05:55:48;74.22;;;14.35;;
44147;SDS011;29810;55.848;37.368;2022-09-27T05:58:50;219.68;;;17.50;;
44147;SDS011;29810;55.848;37.368;2022-09-27T06:01:55;97.12;;;16.90;;
44147;SDS011;29810;55.848;37.368;2022-09-27T06:04:59;334.98;;;20.65;;
44147;SDS011;29810;55.848;37.368;2022-09-27T06:08:05;282.85;;;20.08;;
44147;SDS011;29810;55.848;37.368;2022-09-27T06:11:13;299.62;;;22.20;;
44147;SDS011;29810;55.848;37.368;2022-09-27T06:14:15;300.95;;;23.33;;
44147;SDS011;29810;55.848;37.368;2022-09-27T06:17:20;138.68;;;19.52;;
44147;SDS011;29810;55.848;37.368;2022-09-27T06:20:22;142.62;;;19.48;;
44147;SDS011;29810;55.848;37.368;2022-09-27T06:23:24;110.60;;;17.48;;
44147;SDS011;29810;55.848;37.368;2022-09-27T06:26:26;98.45;;;16.73;;
44147;SDS011;29810;55.848;37.368;2022-09-27T06:29:29;106.87;;;16.10;;
44147;SDS011;29810;55.848;37.368;2022-09-27T06:32:37;39.97;;;14.50;;
44147;SDS011;29810;55.848;37.368;2022-09-27T06:35:41;151.18;;;18.42;;
44147;SDS011;29810;55.848;37.368;2022-09-27T06:38:43;49.80;;;16.45;;
44147;SDS011;29810;55.848;37.368;2022-09-27T06:41:51;27.23;;;14.80;;
44147;SDS011;29810;55.848;37.368;2022-09-27T06:44:58;20.12;;;14.80;;
44147;SDS011;29810;55.848;37.368;2022-09-27T06:48:09;26.48;;;16.37;;
44147;SDS011;29810;55.848;37.368;2022-09-27T06:51:13;23.25;;;19.12;;
44147;SDS011;29810;55.848;37.368;2022-09-27T06:54:14;21.83;;;18.25;;
44147;SDS011;29810;55.848;37.368;2022-09-27T06:57:17;29.75;;;23.00;;
44147;SDS011;29810;55.848;37.368;2022-09-27T07:00:39;31.80;;;25.50;;
44147;SDS011;29810;55.848;37.368;2022-09-27T07:03:48;30.10;;;25.20;;
44147;SDS011;29810;55.848;37.368;2022-09-27T07:09:52;33.42;;;27.58;;
44147;SDS011;29810;55.848;37.368;2022-09-27T07:12:54;32.50;;;28.58;;
44147;SDS011;29810;55.848;37.368;2022-09-27T07:15:59;31.00;;;27.70;;
44147;SDS011;29810;55.848;37.368;2022-09-27T07:19:01;29.90;;;26.75;;
44147;SDS011;29810;55.848;37.368;2022-09-27T07:22:04;29.45;;;26.30;;
44147;SDS011;29810;55.848;37.368;2022-09-27T07:25:05;30.05;;;26.83;;
44147;SDS011;29810;55.848;37.368;2022-09-27T07:28:10;28.73;;;25.73;;
44147;SDS011;29810;55.848;37.368;2022-09-27T07:31:15;29.92;;;26.12;;
44147;SDS011;29810;55.848;37.368;2022-09-27T07:34:17;29.27;;;26.08;;
44147;SDS011;29810;55.848;37.368;2022-09-27T07:37:19;27.73;;;24.73;;
44147;SDS011;29810;55.848;37.368;2022-09-27T07:40:21;29.23;;;26.15;;
44147;SDS011;29810;55.848;37.368;2022-09-27T07:43:23;29.85;;;26.30;;
44147;SDS011;29810;55.848;37.368;2022-09-27T07:46:26;28.38;;;25.48;;
44147;SDS011;29810;55.848;37.368;2022-09-27T07:49:28;28.27;;;25.27;;
44147;SDS011;29810;55.848;37.368;2022-09-27T07:52:29;29.83;;;26.73;;
44147;SDS011;29810;55.848;37.368;2022-09-27T07:55:39;28.17;;;25.17;;
44147;SDS011;29810;55.848;37.368;2022-09-27T07:58:41;29.23;;;26.08;;
44147;SDS011;29810;55.848;37.368;2022-09-27T08:01:43;29.48;;;26.48;;
44147;SDS011;29810;55.848;37.368;2022-09-27T08:04:46;29.25;;;26.17;;
44147;SDS011;29810;55.848;37.368;2022-09-27T08:07:52;31.83;;;28.08;;
44147;SDS011;29810;55.848;37.368;2022-09-27T08:10:56;32.13;;;28.08;;
44147;SDS011;29810;55.848;37.368;2022-09-27T08:13:58;28.75;;;25.70;;
44147;SDS011;29810;55.848;37.368;2022-09-27T08:17:02;29.85;;;26.73;;
44147;SDS011;29810;55.848;37.368;2022-09-27T08:20:06;27.45;;;24.52;;
44147;SDS011;29810;55.848;37.368;2022-09-27T08:23:09;25.12;;;22.60;;
44147;SDS011;29810;55.848;37.368;2022-09-27T08:26:11;28.48;;;25.10;;
44147;SDS011;29810;55.848;37.368;2022-09-27T08:29:14;26.87;;;23.98;;
44147;SDS011;29810;55.848;37.368;2022-09-27T08:32:16;28.65;;;25.58;;
44147;SDS011;29810;55.848;37.368;2022-09-27T08:35:18;28.90;;;25.85;;
44147;SDS011;29810;55.848;37.368;2022-09-27T08:38:19;30.12;;;25.08;;
44147;SDS011;29810;55.848;37.368;2022-09-27T08:47:57;28.62;;;25.67;;
44147;SDS011;29810;55.848;37.368;2022-09-27T08:51:01;28.60;;;25.50;;
44147;SDS011;29810;55.848;37.368;2022-09-27T08:54:11;27.10;;;24.23;;
44147;SDS011;29810;55.848;37.368;2022-09-27T08:57:20;27.62;;;24.70;;
44147;SDS011;29810;55.848;37.368;2022-09-27T09:00:24;23.85;;;21.37;;
44147;SDS011;29810;55.848;37.368;2022-09-27T09:03:33;24.40;;;21.90;;
44147;SDS011;29810;55.848;37.368;2022-09-27T09:06:46;27.20;;;22.62;;
44147;SDS011;29810;55.848;37.368;2022-09-27T09:10:02;24.42;;;21.90;;
44147;SDS011;29810;55.848;37.368;2022-09-27T09:13:47;21.48;;;19.37;;
44147;SDS011;29810;55.848;37.368;2022-09-27T09:20:12;20.25;;;18.25;;
44147;SDS011;29810;55.848;37.368;2022-09-27T09:26:37;19.15;;;17.25;;
44147;SDS011;29810;55.848;37.368;2022-09-27T09:39:19;16.40;;;14.65;;
44147;SDS011;29810;55.848;37.368;2022-09-27T09:45:47;17.58;;;14.27;;
44147;SDS011;29810;55.848;37.368;2022-09-27T09:49:16;17.30;;;14.18;;
44147;SDS011;29810;55.848;37.368;2022-09-27T09:52:37;15.27;;;13.85;;
44147;SDS011;29810;55.848;37.368;2022-09-27T09:55:45;15.35;;;13.73;;
44147;SDS011;29810;55.848;37.368;2022-09-27T09:58:54;17.95;;;14.80;;
44147;SDS011;29810;55.848;37.368;2022-09-27T10:02:07;16.08;;;14.38;;
44147;SDS011;29810;55.848;37.368;2022-09-27T10:05:36;16.55;;;14.82;;
44147;SDS011;29810;55.848;37.368;2022-09-27T10:08:38;15.15;;;13.60;;
44147;SDS011;29810;55.848;37.368;2022-09-27T10:11:44;14.73;;;13.23;;
44147;SDS011;29810;55.848;37.368;2022-09-27T10:14:47;15.93;;;12.77;;
44147;SDS011;29810;55.848;37.368;2022-09-27T10:17:51;14.75;;;13.25;;
44147;SDS011;29810;55.848;37.368;2022-09-27T10:20:57;15.02;;;13.13;;
44147;SDS011;29810;55.848;37.368;2022-09-27T10:27:07;17.45;;;13.25;;
44147;SDS011;29810;55.848;37.368;2022-09-27T10:30:23;15.50;;;13.25;;
44147;SDS011;29810;55.848;37.368;2022-09-27T10:33:36;14.18;;;12.73;;
44147;SDS011;29810;55.848;37.368;2022-09-27T10:36:43;15.38;;;13.10;;
44147;SDS011;29810;55.848;37.368;2022-09-27T10:39:45;16.20;;;14.20;;
44147;SDS011;29810;55.848;37.368;2022-09-27T10:42:48;17.33;;;13.32;;
44147;SDS011;29810;55.848;37.368;2022-09-27T10:49:12;15.18;;;12.37;;
44147;SDS011;29810;55.848;37.368;2022-09-27T10:52:21;15.50;;;12.50;;
44147;SDS011;29810;55.848;37.368;2022-09-27T10:55:25;15.57;;;12.40;;
44147;SDS011;29810;55.848;37.368;2022-09-27T10:58:29;15.32;;;12.68;;
44147;SDS011;29810;55.848;37.368;2022-09-27T11:01:38;14.68;;;12.13;;
44147;SDS011;29810;55.848;37.368;2022-09-27T11:05:01;13.45;;;11.00;;
44147;SDS011;29810;55.848;37.368;2022-09-27T11:11:26;13.85;;;11.15;;
44147;SDS011;29810;55.848;37.368;2022-09-27T11:14:28;13.43;;;10.55;;
44147;SDS011;29810;55.848;37.368;2022-09-27T11:17:34;11.50;;;9.68;;
44147;SDS011;29810;55.848;37.368;2022-09-27T11:20:45;13.02;;;9.75;;
44147;SDS011;29810;55.848;37.368;2022-09-27T11:31:42;12.88;;;8.93;;
44147;SDS011;29810;55.848;37.368;2022-09-27T11:38:10;10.57;;;8.50;;
44147;SDS011;29810;55.848;37.368;2022-09-27T11:51:18;15.02;;;9.07;;
44147;SDS011;29810;55.848;37.368;2022-09-27T12:11:35;6.12;;;5.10;;
44147;SDS011;29810;55.848;37.368;2022-09-27T12:14:48;6.53;;;5.35;;
44147;SDS011;29810;55.848;37.368;2022-09-27T12:17:56;8.93;;;5.15;;
44147;SDS011;29810;55.848;37.368;2022-09-27T12:21:20;6.53;;;5.20;;
44147;SDS011;29810;55.848;37.368;2022-09-27T12:24:23;7.53;;;5.47;;
44147;SDS011;29810;55.848;37.368;2022-09-27T12:27:34;6.85;;;4.53;;
44147;SDS011;29810;55.848;37.368;2022-09-27T12:30:49;5.87;;;4.80;;
44147;SDS011;29810;55.848;37.368;2022-09-27T12:34:02;8.93;;;4.75;;
44147;SDS011;29810;55.848;37.368;2022-09-27T12:37:39;6.35;;;4.43;;
44147;SDS011;29810;55.848;37.368;2022-09-27T12:40:41;6.47;;;4.60;;
44147;SDS011;29810;55.848;37.368;2022-09-27T12:43:47;5.47;;;4.30;;
44147;SDS011;29810;55.848;37.368;2022-09-27T12:50:25;7.15;;;4.37;;
44147;SDS011;29810;55.848;37.368;2022-09-27T12:53:47;5.75;;;3.78;;
44147;SDS011;29810;55.848;37.368;2022-09-27T12:57:30;7.55;;;3.58;;
44147;SDS011;29810;55.848;37.368;2022-09-27T13:03:59;6.15;;;3.97;;
44147;SDS011;29810;55.848;37.368;2022-09-27T13:14:23;11.60;;;4.20;;
44147;SDS011;29810;55.848;37.368;2022-09-27T13:20:42;6.10;;;3.80;;
44147;SDS011;29810;55.848;37.368;2022-09-27T13:23:49;7.85;;;4.40;;
44147;SDS011;29810;55.848;37.368;2022-09-27T13:26:51;6.25;;;4.00;;
44147;SDS011;29810;55.848;37.368;2022-09-27T13:36:31;7.00;;;3.83;;
44147;SDS011;29810;55.848;37.368;2022-09-27T13:39:34;8.10;;;3.78;;
44147;SDS011;29810;55.848;37.368;2022-09-27T13:42:44;4.80;;;3.90;;
44147;SDS011;29810;55.848;37.368;2022-09-27T13:46:18;6.82;;;3.67;;
44147;SDS011;29810;55.848;37.368;2022-09-27T13:52:43;7.75;;;3.92;;
44147;SDS011;29810;55.848;37.368;2022-09-27T13:56:01;8.07;;;4.00;;
44147;SDS011;29810;55.848;37.368;2022-09-27T13:59:05;7.47;;;4.05;;
44147;SDS011;29810;55.848;37.368;2022-09-27T14:02:17;6.10;;;4.12;;
44147;SDS011;29810;55.848;37.368;2022-09-27T14:05:34;7.25;;;4.35;;
44147;SDS011;29810;55.848;37.368;2022-09-27T14:08:45;6.90;;;4.10;;
44147;SDS011;29810;55.848;37.368;2022-09-27T14:11:59;5.85;;;4.18;;
44147;SDS011;29810;55.848;37.368;2022-09-27T14:15:09;7.75;;;4.18;;
44147;SDS011;29810;55.848;37.368;2022-09-27T14:18:23;8.75;;;3.87;;
44147;SDS011;29810;55.848;37.368;2022-09-27T14:21:32;5.12;;;3.67;;
44147;SDS011;29810;55.848;37.368;2022-09-27T14:24:47;7.37;;;4.00;;
44147;SDS011;29810;55.848;37.368;2022-09-27T14:27:50;7.90;;;4.40;;
44147;SDS011;29810;55.848;37.368;2022-09-27T14:31:15;7.25;;;4.47;;
44147;SDS011;29810;55.848;37.368;2022-09-27T14:34:22;7.45;;;4.40;;
44147;SDS011;29810;55.848;37.368;2022-09-27T14:37:26;8.20;;;4.62;;
44147;SDS011;29810;55.848;37.368;2022-09-27T14:40:30;9.35;;;4.78;;
44147;SDS011;29810;55.848;37.368;2022-09-27T14:43:40;8.73;;;4.55;;
44147;SDS011;29810;55.848;37.368;2022-09-27T14:46:44;6.78;;;4.75;;
44147;SDS011;29810;55.848;37.368;2022-09-27T14:49:48;7.12;;;5.20;;
44147;SDS011;29810;55.848;37.368;2022-09-27T14:52:55;9.80;;;4.97;;
44147;SDS011;29810;55.848;37.368;2022-09-27T14:56:00;7.43;;;4.80;;
44147;SDS011;29810;55.848;37.368;2022-09-27T14:59:05;10.50;;;5.18;;
44147;SDS011;29810;55.848;37.368;2022-09-27T15:02:21;8.80;;;5.70;;
44147;SDS011;29810;55.848;37.368;2022-09-27T15:05:27;11.20;;;5.65;;
44147;SDS011;29810;55.848;37.368;2022-09-27T15:08:32;7.68;;;5.40;;
44147;SDS011;29810;55.848;37.368;2022-09-27T15:11:34;11.23;;;5.85;;
44147;SDS011;29810;55.848;37.368;2022-09-27T15:14:37;12.10;;;5.95;;
44147;SDS011;29810;55.848;37.368;2022-09-27T15:17:42;9.52;;;5.60;;
44147;SDS011;29810;55.848;37.368;2022-09-27T15:20:51;12.68;;;5.60;;
44147;SDS011;29810;55.848;37.368;2022-09-27T15:23:53;10.45;;;6.47;;
44147;SDS011;29810;55.848;37.368;2022-09-27T15:26:59;9.20;;;6.05;;
44147;SDS011;29810;55.848;37.368;2022-09-27T15:30:01;12.00;;;5.90;;
44147;SDS011;29810;55.848;37.368;2022-09-27T15:33:06;9.85;;;5.65;;
44147;SDS011;29810;55.848;37.368;2022-09-27T15:36:30;12.50;;;6.28;;
44147;SDS011;29810;55.848;37.368;2022-09-27T15:39:52;13.88;;;6.75;;
44147;SDS011;29810;55.848;37.368;2022-09-27T15:42:59;12.50;;;8.60;;
44147;SDS011;29810;55.848;37.368;2022-09-27T15:46:03;16.77;;;12.00;;
44147;SDS011;29810;55.848;37.368;2022-09-27T15:49:28;13.57;;;8.73;;
44147;SDS011;29810;55.848;37.368;2022-09-27T15:52:47;14.73;;;7.62;;
44147;SDS011;29810;55.848;37.368;2022-09-27T15:55:51;16.42;;;7.12;;
44147;SDS011;29810;55.848;37.368;2022-09-27T15:58:52;10.63;;;6.75;;
44147;SDS011;29810;55.848;37.368;2022-09-27T16:01:55;7.70;;;5.15;;
44147;SDS011;29810;55.848;37.368;2022-09-27T16:04:58;9.40;;;5.22;;
44147;SDS011;29810;55.848;37.368;2022-09-27T16:08:00;9.05;;;5.05;;
44147;SDS011;29810;55.848;37.368;2022-09-27T16:11:01;8.18;;;4.93;;
44147;SDS011;29810;55.848;37.368;2022-09-27T16:14:05;6.78;;;4.40;;
44147;SDS011;29810;55.848;37.368;2022-09-27T16:17:07;8.05;;;4.72;;
44147;SDS011;29810;55.848;37.368;2022-09-27T16:20:20;6.78;;;4.95;;
44147;SDS011;29810;55.848;37.368;2022-09-27T16:23:25;6.93;;;4.75;;
44147;SDS011;29810;55.848;37.368;2022-09-27T16:26:26;8.15;;;5.05;;
44147;SDS011;29810;55.848;37.368;2022-09-27T16:29:28;8.80;;;4.87;;
44147;SDS011;29810;55.848;37.368;2022-09-27T16:32:30;14.87;;;5.50;;
44147;SDS011;29810;55.848;37.368;2022-09-27T16:35:32;9.15;;;5.12;;
44147;SDS011;29810;55.848;37.368;2022-09-27T16:38:33;9.93;;;5.80;;
44147;SDS011;29810;55.848;37.368;2022-09-27T16:41:35;7.57;;;5.15;;
44147;SDS011;29810;55.848;37.368;2022-09-27T16:44:37;10.70;;;5.57;;
44147;SDS011;29810;55.848;37.368;2022-09-27T16:47:38;14.35;;;6.07;;
44147;SDS011;29810;55.848;37.368;2022-09-27T16:50:40;10.05;;;5.95;;
44147;SDS011;29810;55.848;37.368;2022-09-27T16:54:00;9.40;;;5.62;;
44147;SDS011;29810;55.848;37.368;2022-09-27T16:57:03;10.68;;;5.90;;
44147;SDS011;29810;55.848;37.368;2022-09-27T17:00:05;10.50;;;6.37;;
44147;SDS011;29810;55.848;37.368;2022-09-27T17:03:08;8.85;;;5.72;;
44147;SDS011;29810;55.848;37.368;2022-09-27T17:06:10;10.55;;;6.40;;
44147;SDS011;29810;55.848;37.368;2022-09-27T17:09:12;13.90;;;6.47;;
44147;SDS011;29810;55.848;37.368;2022-09-27T17:12:14;10.20;;;5.78;;
44147;SDS011;29810;55.848;37.368;2022-09-27T17:15:17;7.60;;;5.45;;
44147;SDS011;29810;55.848;37.368;2022-09-27T17:18:19;9.15;;;5.40;;
44147;SDS011;29810;55.848;37.368;2022-09-27T17:21:20;9.98;;;6.10;;
44147;SDS011;29810;55.848;37.368;2022-09-27T17:24:22;8.60;;;5.40;;
44147;SDS011;29810;55.848;37.368;2022-09-27T17:27:25;7.75;;;5.45;;
44147;SDS011;29810;55.848;37.368;2022-09-27T17:30:28;7.60;;;5.25;;
44147;SDS011;29810;55.848;37.368;2022-09-27T17:33:31;8.73;;;5.97;;
44147;SDS011;29810;55.848;37.368;2022-09-27T17:36:33;8.30;;;5.80;;
44147;SDS011;29810;55.848;37.368;2022-09-27T17:39:37;8.00;;;5.90;;
44147;SDS011;29810;55.848;37.368;2022-09-27T17:42:38;10.55;;;5.53;;
44147;SDS011;29810;55.848;37.368;2022-09-27T17:45:40;7.47;;;5.43;;
44147;SDS011;29810;55.848;37.368;2022-09-27T17:48:41;8.60;;;5.65;;
44147;SDS011;29810;55.848;37.368;2022-09-27T17:52:01;8.75;;;5.72;;
44147;SDS011;29810;55.848;37.368;2022-09-27T17:55:03;8.90;;;5.93;;
44147;SDS011;29810;55.848;37.368;2022-09-27T17:58:05;10.55;;;6.25;;
44147;SDS011;29810;55.848;37.368;2022-09-27T18:01:07;10.85;;;5.85;;
44147;SDS011;29810;55.848;37.368;2022-09-27T18:04:10;7.30;;;5.47;;
44147;SDS011;29810;55.848;37.368;2022-09-27T18:07:13;8.38;;;5.62;;
44147;SDS011;29810;55.848;37.368;2022-09-27T18:10:18;9.63;;;5.82;;
44147;SDS011;29810;55.848;37.368;2022-09-27T18:13:19;9.32;;;6.18;;
44147;SDS011;29810;55.848;37.368;2022-09-27T18:16:21;11.68;;;6.20;;
44147;SDS011;29810;55.848;37.368;2022-09-27T18:19:29;8.25;;;5.78;;
44147;SDS011;29810;55.848;37.368;2022-09-27T18:22:31;9.32;;;5.70;;
44147;SDS011;29810;55.848;37.368;2022-09-27T18:25:32;8.73;;;6.05;;
44147;SDS011;29810;55.848;37.368;2022-09-27T18:28:40;8.73;;;6.20;;
44147;SDS011;29810;55.848;37.368;2022-09-27T18:31:43;7.65;;;5.95;;
44147;SDS011;29810;55.848;37.368;2022-09-27T18:34:45;7.57;;;5.72;;
44147;SDS011;29810;55.848;37.368;2022-09-27T18:37:46;8.52;;;6.60;;
44147;SDS011;29810;55.848;37.368;2022-09-27T18:40:48;11.75;;;6.75;;
44147;SDS011;29810;55.848;37.368;2022-09-27T18:43:52;9.20;;;6.68;;
44147;SDS011;29810;55.848;37.368;2022-09-27T18:46:59;9.98;;;7.10;;
44147;SDS011;29810;55.848;37.368;2022-09-27T18:50:00;9.73;;;7.75;;
44147;SDS011;29810;55.848;37.368;2022-09-27T18:53:02;10.77;;;7.80;;
44147;SDS011;29810;55.848;37.368;2022-09-27T18:56:09;12.82;;;7.00;;
44147;SDS011;29810;55.848;37.368;2022-09-27T18:59:13;14.45;;;7.78;;
44147;SDS011;29810;55.848;37.368;2022-09-27T19:02:15;10.18;;;7.28;;
44147;SDS011;29810;55.848;37.368;2022-09-27T19:05:17;10.75;;;7.18;;
44147;SDS011;29810;55.848;37.368;2022-09-27T19:08:26;10.18;;;6.95;;
44147;SDS011;29810;55.848;37.368;2022-09-27T19:11:28;10.00;;;7.40;;
44147;SDS011;29810;55.848;37.368;2022-09-27T19:14:32;13.85;;;8.07;;
44147;SDS011;29810;55.848;37.368;2022-09-27T19:17:38;11.88;;;7.47;;
44147;SDS011;29810;55.848;37.368;2022-09-27T19:20:40;9.05;;;7.22;;
44147;SDS011;29810;55.848;37.368;2022-09-27T19:23:41;10.82;;;7.87;;
44147;SDS011;29810;55.848;37.368;2022-09-27T19:26:43;15.43;;;9.15;;
44147;SDS011;29810;55.848;37.368;2022-09-27T19:29:45;9.95;;;7.28;;
44147;SDS011;29810;55.848;37.368;2022-09-27T19:32:47;12.65;;;8.52;;
44147;SDS011;29810;55.848;37.368;2022-09-27T19:35:49;14.23;;;9.05;;
44147;SDS011;29810;55.848;37.368;2022-09-27T19:38:50;11.57;;;8.60;;
44147;SDS011;29810;55.848;37.368;2022-09-27T19:41:58;19.90;;;10.85;;
44147;SDS011;29810;55.848;37.368;2022-09-27T19:44:59;17.30;;;11.30;;
44147;SDS011;29810;55.848;37.368;2022-09-27T19:48:01;15.32;;;12.10;;
44147;SDS011;29810;55.848;37.368;2022-09-27T19:51:03;18.45;;;12.37;;
44147;SDS011;29810;55.848;37.368;2022-09-27T19:54:09;16.75;;;12.70;;
44147;SDS011;29810;55.848;37.368;2022-09-27T19:57:11;20.83;;;12.32;;
44147;SDS011;29810;55.848;37.368;2022-09-27T20:00:13;17.45;;;12.45;;
44147;SDS011;29810;55.848;37.368;2022-09-27T20:03:15;17.25;;;13.62;;
44147;SDS011;29810;55.848;37.368;2022-09-27T20:06:17;21.40;;;14.18;;
44147;SDS011;29810;55.848;37.368;2022-09-27T20:09:19;21.77;;;17.23;;
44147;SDS011;29810;55.848;37.368;2022-09-27T20:12:21;22.98;;;18.05;;
44147;SDS011;29810;55.848;37.368;2022-09-27T20:15:23;25.67;;;21.05;;
44147;SDS011;29810;55.848;37.368;2022-09-27T20:18:25;25.05;;;20.45;;
44147;SDS011;29810;55.848;37.368;2022-09-27T20:21:29;29.98;;;19.45;;
44147;SDS011;29810;55.848;37.368;2022-09-27T20:24:32;21.65;;;16.98;;
44147;SDS011;29810;55.848;37.368;2022-09-27T20:27:35;24.25;;;17.92;;
44147;SDS011;29810;55.848;37.368;2022-09-27T20:30:37;22.98;;;16.70;;
44147;SDS011;29810;55.848;37.368;2022-09-27T20:33:39;18.92;;;16.92;;